Time;durP1;ratioP1;P1;durP2;ratioP2;P2;SDS_P1;SDS_P2;PMS_P1;PMS_P2;Temp;Humidity;BMP_temperature;BMP_pressure;BME280_temperature;BME280_humidity;BME280_pressure;Samples;Min_cycle;Max_cycle;Signal;HPM_P1;HPM_P2
2022/06/16 00:01:58;;;;;;;3.60;3.30;;;;;;;16.15;51.53;100810.66;5074515;28;20019;-21
2022/06/16 00:04:24;;;;;;;3.75;3.45;;;;;;;16.15;51.67;100804.50;5069701;28;20543;-21
2022/06/16 00:06:49;;;;;;;3.75;3.20;;;;;;;16.05;51.61;100803.91;5059141;28;20028;-21
2022/06/16 00:09:15;;;;;;;3.70;3.40;;;;;;;16.06;51.73;100808.31;5050922;28;20027;-21
2022/06/16 00:11:40;;;;;;;4.85;3.60;;;;;;;16.05;51.80;100811.00;5057715;28;20056;-21
2022/06/16 00:14:06;;;;;;;4.28;3.50;;;;;;;15.98;51.84;100813.88;5060598;28;20028;-21
2022/06/16 00:16:32;;;;;;;3.22;3.03;;;;;;;15.95;51.82;100805.97;5052933;28;20039;-21
2022/06/16 00:18:57;;;;;;;3.67;3.20;;;;;;;15.94;51.95;100804.19;5061166;28;20032;-21
2022/06/16 00:21:22;;;;;;;3.63;3.42;;;;;;;15.86;52.01;100814.16;5049786;28;20052;-21
2022/06/16 00:23:47;;;;;;;4.85;3.75;;;;;;;15.82;51.58;100812.53;5062271;28;20037;-22
2022/06/16 00:26:15;;;;;;;3.67;3.22;;;;;;;15.81;52.17;100816.09;5067940;28;20024;-21
2022/06/16 00:28:41;;;;;;;3.50;3.20;;;;;;;15.80;52.05;100807.25;5047936;28;20384;-21
2022/06/16 00:31:09;;;;;;;3.90;3.53;;;;;;;15.76;52.07;100798.50;5067091;28;20024;-21
2022/06/16 00:33:34;;;;;;;4.13;3.72;;;;;;;15.71;52.07;100800.41;5062072;28;20789;-21
2022/06/16 00:35:59;;;;;;;3.85;3.55;;;;;;;15.67;52.28;100798.75;5043525;28;20032;-21
2022/06/16 00:38:25;;;;;;;3.70;3.50;;;;;;;15.66;52.37;100794.34;5061507;28;20059;-21
2022/06/16 00:40:51;;;;;;;4.07;3.67;;;;;;;15.61;52.39;100799.78;5066243;28;20024;-21
2022/06/16 00:43:17;;;;;;;3.83;3.50;;;;;;;15.56;52.36;100796.41;5054480;28;20032;-21
2022/06/16 00:45:45;;;;;;;3.60;3.40;;;;;;;15.55;52.36;100793.78;5069121;28;20031;-21
2022/06/16 00:48:32;;;;;;;3.30;3.10;;;;;;;15.52;52.27;100790.31;5068967;28;20028;-21
2022/06/16 00:51:27;;;;;;;3.83;3.50;;;;;;;15.53;52.57;100783.19;5068808;28;20395;-21
2022/06/16 00:53:56;;;;;;;4.82;3.92;;;;;;;15.43;52.56;100785.22;5046854;28;20526;-21
2022/06/16 00:56:22;;;;;;;4.82;3.70;;;;;;;15.45;52.42;100798.47;5046881;28;20051;-21
2022/06/16 00:58:51;;;;;;;3.70;3.40;;;;;;;15.41;52.59;100797.72;5066146;28;20036;-21
2022/06/16 01:01:20;;;;;;;4.25;3.78;;;;;;;15.39;52.74;100795.09;5055785;28;20036;-21
2022/06/16 01:06:30;;;;;;;3.83;3.53;;;;;;;15.33;53.02;100797.03;5070256;28;20297;-21
2022/06/16 01:09:10;;;;;;;4.25;3.92;;;;;;;15.26;53.21;100797.19;5072907;28;20281;-21
2022/06/16 01:14:50;;;;;;;4.30;4.00;;;;;;;15.25;53.01;100806.06;5066971;28;20082;-21
2022/06/16 01:17:25;;;;;;;4.30;3.95;;;;;;;15.23;52.82;100805.25;5067537;28;20033;-21
2022/06/16 01:20:12;;;;;;;4.57;3.92;;;;;;;15.19;53.12;100800.94;5066550;28;20111;-21
2022/06/16 01:22:44;;;;;;;4.10;3.80;;;;;;;15.16;53.16;100784.19;5070478;28;20067;-22
2022/06/16 01:25:44;;;;;;;4.15;3.83;;;;;;;15.10;53.00;100785.22;5046426;28;20107;-21
2022/06/16 01:28:18;;;;;;;4.10;3.80;;;;;;;15.04;53.08;100786.25;5026918;28;20072;-21
2022/06/16 01:30:52;;;;;;;3.95;3.65;;;;;;;15.01;52.91;100799.63;5071902;28;20024;-21
2022/06/16 01:33:25;;;;;;;4.25;3.72;;;;;;;15.05;53.12;100797.75;5069566;28;20500;-21
2022/06/16 01:35:58;;;;;;;4.47;4.00;;;;;;;15.05;52.94;100795.09;5071159;28;20110;-21
2022/06/16 01:38:27;;;;;;;3.90;3.58;;;;;;;14.97;52.93;100797.97;5054724;28;20095;-21
2022/06/16 01:41:20;;;;;;;4.88;4.20;;;;;;;14.94;53.14;100798.03;5061857;28;20024;-21
2022/06/16 01:43:58;;;;;;;4.05;3.78;;;;;;;14.93;53.06;100791.84;5049893;28;20078;-21
2022/06/16 01:46:29;;;;;;;4.65;4.25;;;;;;;14.94;53.27;100798.03;5050415;28;20286;-21
2022/06/16 01:49:02;;;;;;;4.10;3.80;;;;;;;14.94;52.75;100796.25;5070559;28;20020;-21
2022/06/16 01:51:33;;;;;;;4.90;4.40;;;;;;;14.87;53.77;100797.31;5070296;28;20036;-21
2022/06/16 01:54:15;;;;;;;4.03;3.72;;;;;;;14.91;52.96;100801.66;5053492;28;20030;-22
2022/06/16 01:56:48;;;;;;;4.40;4.07;;;;;;;14.96;52.93;100804.19;5055950;28;20086;-21
2022/06/16 01:59:21;;;;;;;4.30;3.92;;;;;;;14.96;53.16;100813.03;5063258;28;20033;-22
2022/06/16 02:01:52;;;;;;;4.60;4.03;;;;;;;14.94;52.78;100801.56;5063375;28;20024;-21
2022/06/16 02:04:27;;;;;;;3.88;3.58;;;;;;;14.96;52.96;100818.34;5063161;28;20032;-21
2022/06/16 02:06:55;;;;;;;4.07;3.72;;;;;;;14.99;52.96;100807.63;5055929;28;20056;-21
2022/06/16 02:09:27;;;;;;;4.13;3.60;;;;;;;14.97;53.00;100811.25;5070870;28;20043;-21
2022/06/16 02:11:55;;;;;;;4.03;3.70;;;;;;;14.95;53.05;100819.25;5069584;28;20071;-21
2022/06/16 02:14:38;;;;;;;4.28;3.88;;;;;;;14.98;53.03;100813.00;5053684;28;20515;-21
2022/06/16 02:17:04;;;;;;;3.88;3.55;;;;;;;15.00;52.96;100819.13;5049626;28;21432;-21
2022/06/16 02:19:29;;;;;;;4.57;4.18;;;;;;;15.02;52.86;100809.34;5062609;28;20025;-21
2022/06/16 02:21:55;;;;;;;4.68;4.18;;;;;;;15.00;53.41;100814.69;5069606;28;20036;-21
2022/06/16 02:24:22;;;;;;;4.55;4.07;;;;;;;15.05;52.96;100811.03;5069279;28;20032;-21
2022/06/16 02:26:49;;;;;;;4.63;4.20;;;;;;;15.06;53.18;100823.41;5054425;28;20028;-21
2022/06/16 02:29:33;;;;;;;4.10;3.70;;;;;;;15.05;52.63;100824.31;5056381;28;20024;-21
2022/06/16 02:32:20;;;;;;;4.55;3.47;;;;;;;15.04;52.69;100820.78;5069167;28;20036;-21
2022/06/16 02:35:10;;;;;;;4.32;3.85;;;;;;;15.05;52.01;100829.63;5067507;28;20076;-21
2022/06/16 02:37:56;;;;;;;4.82;4.28;;;;;;;15.08;52.43;100829.56;5069693;28;20443;-21
2022/06/16 02:40:33;;;;;;;5.68;4.20;;;;;;;15.09;52.44;100810.03;5043445;28;20091;-21
2022/06/16 02:43:34;;;;;;;4.03;3.72;;;;;;;15.05;52.57;100805.72;5072201;28;20130;-21
2022/06/16 02:46:05;;;;;;;4.33;3.90;;;;;;;15.05;52.55;100811.03;5044777;28;20037;-21
2022/06/16 02:48:30;;;;;;;;;;;;;;;15.08;52.37;100806.53;5061763;28;20111;-21
2022/06/16 02:51:13;;;;;;;4.20;3.90;;;;;;;15.12;52.54;100807.31;5071307;28;20455;-21
2022/06/16 02:56:44;;;;;;;4.47;4.07;;;;;;;15.08;52.83;100826.91;5031105;28;20040;-21
2022/06/16 02:59:13;;;;;;;5.55;4.20;;;;;;;15.10;53.04;100825.06;5045976;28;20178;-21
2022/06/16 03:01:39;;;;;;;4.50;4.03;;;;;;;15.07;53.05;100822.50;5068014;28;20115;-21
2022/06/16 03:04:09;;;;;;;4.80;4.40;;;;;;;15.06;52.96;100820.75;5052673;28;20418;-21
2022/06/16 03:06:34;;;;;;;4.13;3.83;;;;;;;15.06;53.80;100829.59;5053435;28;20020;-21
2022/06/16 03:09:00;;;;;;;4.50;4.10;;;;;;;15.07;52.88;100835.78;5064039;28;20024;-21
2022/06/16 03:11:26;;;;;;;4.03;3.72;;;;;;;15.03;52.99;100834.97;5069520;28;20555;-21
2022/06/16 03:13:51;;;;;;;4.43;4.13;;;;;;;15.02;52.96;100825.28;5034322;28;20514;-21
2022/06/16 03:16:16;;;;;;;4.47;4.05;;;;;;;15.05;53.29;100821.66;5067705;28;20032;-21
2022/06/16 03:18:42;;;;;;;4.55;4.15;;;;;;;15.01;53.20;100811.13;5039517;28;20040;-21
2022/06/16 03:21:08;;;;;;;4.68;4.25;;;;;;;15.03;53.42;100811.06;5060766;28;20119;-21
2022/06/16 03:23:34;;;;;;;4.45;4.05;;;;;;;15.01;53.79;100816.44;5051577;28;20048;-21
2022/06/16 03:26:00;;;;;;;4.90;4.18;;;;;;;15.05;53.50;100832.28;5054919;28;20056;-21
2022/06/16 03:28:25;;;;;;;4.85;4.18;;;;;;;14.98;53.35;100824.47;5068418;28;20047;-22
2022/06/16 03:30:51;;;;;;;4.50;4.15;;;;;;;14.99;53.53;100828.88;5068400;28;20166;-21
2022/06/16 03:33:16;;;;;;;5.53;4.68;;;;;;;15.00;53.18;100813.81;5069055;28;20111;-21
2022/06/16 03:35:42;;;;;;;5.47;4.28;;;;;;;15.00;53.49;100820.00;5064611;28;20028;-21
2022/06/16 03:38:31;;;;;;;5.65;4.45;;;;;;;15.04;53.21;100819.94;5052487;28;20040;-21
2022/06/16 03:40:56;;;;;;;4.40;4.00;;;;;;;15.02;53.51;100814.66;5065256;28;20036;-21
2022/06/16 03:43:22;;;;;;;4.55;4.25;;;;;;;15.02;53.14;100812.00;5041701;28;20062;-21
2022/06/16 03:45:47;;;;;;;4.63;4.32;;;;;;;15.02;54.11;100812.00;5042041;28;20090;-21
2022/06/16 03:48:12;;;;;;;5.10;4.60;;;;;;;15.06;53.79;100815.44;5051828;28;20020;-21
2022/06/16 03:50:38;;;;;;;4.65;4.35;;;;;;;15.02;53.53;100819.97;5070386;28;20280;-21
2022/06/16 03:53:03;;;;;;;5.10;4.60;;;;;;;15.07;53.83;100817.19;5067835;28;21370;-21
2022/06/16 03:55:28;;;;;;;4.40;4.05;;;;;;;15.06;53.52;100823.41;5066305;28;20028;-21
2022/06/16 03:57:54;;;;;;;5.30;4.80;;;;;;;15.09;53.54;100839.25;5067940;28;20114;-22
2022/06/16 04:00:21;;;;;;;5.32;4.25;;;;;;;15.06;53.11;100842.88;5065029;28;20430;-21
2022/06/16 04:02:47;;;;;;;5.15;4.75;;;;;;;15.10;53.40;100841.00;5068083;28;20027;-21
2022/06/16 04:05:13;;;;;;;5.10;4.70;;;;;;;15.11;53.35;100854.25;5066411;28;20029;-21
2022/06/16 04:07:38;;;;;;;4.93;4.28;;;;;;;15.10;53.87;100862.25;5071034;28;20082;-21
2022/06/16 04:10:06;;;;;;;6.63;4.80;;;;;;;15.08;53.73;100866.75;5069467;28;20423;-21
2022/06/16 04:12:31;;;;;;;4.90;4.47;;;;;;;15.10;54.37;100863.13;5068095;28;20043;-21
2022/06/16 04:14:56;;;;;;;5.63;5.05;;;;;;;15.10;53.77;100868.44;5058910;28;20024;-21
2022/06/16 04:17:22;;;;;;;5.00;4.60;;;;;;;15.10;53.46;100867.56;5068159;28;20380;-21
2022/06/16 04:22:31;;;;;;;5.93;4.60;;;;;;;15.12;53.70;100860.44;5067654;28;20031;-21
2022/06/16 04:24:56;;;;;;;6.55;4.70;;;;;;;15.13;53.83;100864.84;5065436;28;20033;-21
2022/06/16 04:27:22;;;;;;;5.72;4.45;;;;;;;15.17;53.98;100868.31;5063700;28;20035;-21
2022/06/16 04:29:48;;;;;;;6.18;4.53;;;;;;;15.22;53.82;100858.44;5056229;28;20059;-21
2022/06/16 04:32:13;;;;;;;4.43;4.13;;;;;;;15.27;53.86;100861.81;5068079;28;20035;-21
2022/06/16 04:34:39;;;;;;;5.47;5.07;;;;;;;15.33;53.36;100852.81;5066504;28;20033;-21
2022/06/16 04:37:04;;;;;;;5.55;5.05;;;;;;;15.32;54.74;100851.09;5044239;28;20631;-21
2022/06/16 04:39:30;;;;;;;4.75;4.13;;;;;;;15.36;54.56;100858.06;5032845;28;20054;-21
2022/06/16 04:41:55;;;;;;;5.65;5.05;;;;;;;15.39;55.43;100855.34;5069839;28;20388;-21
2022/06/16 04:44:21;;;;;;;4.70;4.30;;;;;;;15.43;53.92;100858.75;5068586;28;20110;-21
2022/06/16 04:46:46;;;;;;;5.15;4.75;;;;;;;15.49;54.67;100858.63;5070330;28;20042;-21
2022/06/16 04:49:12;;;;;;;4.78;4.32;;;;;;;15.52;53.95;100864.75;5068793;28;20025;-21
2022/06/16 04:51:37;;;;;;;6.72;4.93;;;;;;;15.56;55.69;100870.81;5050149;28;20032;-21
2022/06/16 04:54:03;;;;;;;5.95;4.53;;;;;;;15.59;53.81;100864.56;5067244;28;20036;-21
2022/06/16 04:56:28;;;;;;;5.60;4.90;;;;;;;15.63;54.72;100871.53;5066653;28;20024;-21
2022/06/16 04:58:54;;;;;;;5.28;4.75;;;;;;;15.67;53.74;100883.81;5050582;28;20036;-21
2022/06/16 05:01:19;;;;;;;4.28;3.92;;;;;;;15.67;54.42;100878.50;5067820;28;20083;-21
2022/06/16 05:03:44;;;;;;;4.95;4.55;;;;;;;15.72;54.45;100879.28;5071322;28;20511;-21
2022/06/16 05:06:10;;;;;;;5.18;4.55;;;;;;;15.77;54.43;100874.69;5073792;28;20162;-21
2022/06/16 05:08:35;;;;;;;4.82;4.43;;;;;;;15.77;54.99;100874.69;5070184;28;20048;-21
2022/06/16 05:11:00;;;;;;;5.25;4.63;;;;;;;15.83;54.11;100878.97;5076036;28;20028;-21
2022/06/16 05:13:26;;;;;;;5.28;3.90;;;;;;;15.85;55.54;100878.91;5053249;28;20244;-21
2022/06/16 05:15:55;;;;;;;5.15;4.75;;;;;;;15.88;54.81;100877.03;5067700;28;20460;-21
2022/06/16 05:18:20;;;;;;;4.95;4.55;;;;;;;15.89;56.13;100868.16;5072088;28;20028;-21
2022/06/16 05:20:46;;;;;;;5.15;4.68;;;;;;;15.90;55.95;100875.22;5073739;28;20155;-21
2022/06/16 05:23:12;;;;;;;4.75;4.35;;;;;;;15.97;56.09;100886.56;5068385;28;20154;-21
2022/06/16 05:25:39;;;;;;;5.30;4.80;;;;;;;16.01;55.81;100888.22;5048214;28;20041;-21
2022/06/16 05:28:06;;;;;;;5.00;4.47;;;;;;;16.07;55.74;100875.69;5071928;28;20411;-21
2022/06/16 05:30:32;;;;;;;5.80;5.30;;;;;;;16.12;56.67;100881.75;5064959;28;20068;-21
2022/06/16 05:32:57;;;;;;;4.45;4.15;;;;;;;16.19;55.54;100890.41;5066457;28;20154;-21
2022/06/16 05:35:23;;;;;;;5.35;4.60;;;;;;;16.21;56.42;100894.75;5065896;28;20537;-21
2022/06/16 05:37:48;;;;;;;5.53;4.65;;;;;;;16.26;55.97;100887.53;5073133;28;20774;-21
2022/06/16 05:40:13;;;;;;;4.88;4.47;;;;;;;16.31;55.47;100900.72;5068127;28;20167;-21
2022/06/16 05:42:39;;;;;;;5.55;4.45;;;;;;;16.34;56.27;100899.75;5068410;28;20044;-21
2022/06/16 05:45:05;;;;;;;4.50;4.20;;;;;;;16.40;55.43;100895.09;5068989;28;20020;-21
2022/06/16 05:47:30;;;;;;;4.57;4.03;;;;;;;16.43;56.10;100888.81;5068372;28;20036;-21
2022/06/16 05:49:55;;;;;;;4.70;4.32;;;;;;;16.50;55.85;100892.16;5035038;28;20012;-21
2022/06/16 05:52:21;;;;;;;5.97;4.78;;;;;;;16.54;56.20;100900.00;5068918;28;20016;-21
2022/06/16 05:54:47;;;;;;;5.32;4.68;;;;;;;16.61;55.68;100898.00;5070685;28;20499;-21
2022/06/16 05:57:13;;;;;;;5.13;4.55;;;;;;;16.66;55.43;100901.44;5065999;28;20036;-21
2022/06/16 05:59:39;;;;;;;5.72;4.47;;;;;;;16.73;55.67;100903.88;5069739;28;20029;-21
2022/06/16 06:02:07;;;;;;;7.35;4.47;;;;;;;16.76;56.46;100907.34;5046581;28;20036;-21
2022/06/16 06:04:33;;;;;;;5.10;4.63;;;;;;;16.83;56.59;100912.44;5047082;28;20336;-21
2022/06/16 06:06:59;;;;;;;5.40;4.75;;;;;;;16.88;56.04;100911.38;5026953;28;20029;-21
2022/06/16 06:16:25;;;;;;;7.80;4.68;;;;;;;16.96;56.07;100913.81;5070279;28;21074;-21
2022/06/16 06:18:07;;;;;;;6.43;4.90;;;;;;;17.03;56.28;100931.34;5069202;28;20043;-21
2022/06/16 06:20:33;;;;;;;6.03;5.18;;;;;;;17.05;56.32;100937.53;5031482;28;20036;-21
2022/06/16 06:22:58;;;;;;;5.57;5.00;;;;;;;17.13;55.87;100939.06;5062216;28;20032;-21
2022/06/16 06:25:24;;;;;;;7.20;5.20;;;;;;;17.18;55.95;100950.47;5067793;28;20020;-21
2022/06/16 06:27:49;;;;;;;5.65;4.40;;;;;;;17.21;55.71;100955.72;5070954;28;20036;-21
2022/06/16 06:30:22;;;;;;;6.60;4.65;;;;;;;17.24;55.77;100950.25;5069433;28;20016;-21
2022/06/16 06:32:47;;;;;;;4.97;4.30;;;;;;;17.22;56.66;100956.56;5066664;28;20036;-21
2022/06/16 06:35:13;;;;;;;6.53;4.88;;;;;;;17.30;55.95;100970.50;5064853;28;20020;-21
2022/06/16 06:37:39;;;;;;;5.38;4.88;;;;;;;17.31;56.26;100966.94;5067407;28;20566;-21
2022/06/16 06:40:06;;;;;;;7.57;5.20;;;;;;;17.37;56.53;100965.88;5069934;28;20329;-21
2022/06/16 06:42:31;;;;;;;7.82;4.88;;;;;;;17.44;55.79;100970.06;5066334;28;20039;-21
2022/06/16 06:44:56;;;;;;;7.68;4.45;;;;;;;17.51;55.90;100971.59;5069459;28;20480;-21
2022/06/16 06:47:27;;;;;;;5.45;4.97;;;;;;;17.57;55.65;100973.16;5070793;28;20075;-21
2022/06/16 06:49:53;;;;;;;5.13;4.65;;;;;;;17.61;55.45;100976.63;5069409;28;20027;-21
2022/06/16 06:52:19;;;;;;;4.97;4.45;;;;;;;17.64;55.22;100974.72;5065471;28;20029;-21
2022/06/16 06:54:45;;;;;;;5.07;4.55;;;;;;;17.68;55.47;100984.34;5068073;28;20036;-21
2022/06/16 06:57:17;;;;;;;5.35;4.20;;;;;;;17.71;55.29;100988.72;5047598;28;20111;-21
2022/06/16 06:59:42;;;;;;;6.20;5.05;;;;;;;17.75;54.99;100990.38;5065289;28;20029;-21
2022/06/16 07:02:11;;;;;;;4.88;4.50;;;;;;;17.78;55.43;100987.56;5068398;28;20079;-21
2022/06/16 07:04:38;;;;;;;6.50;4.38;;;;;;;17.85;54.83;100990.03;5034964;28;20496;-21
2022/06/16 07:07:03;;;;;;;5.05;4.40;;;;;;;17.88;55.32;100985.47;5066897;28;20028;-21
2022/06/16 07:09:28;;;;;;;4.85;4.45;;;;;;;17.93;54.70;100987.97;5066320;28;20361;-21
2022/06/16 07:11:54;;;;;;;4.43;4.03;;;;;;;17.96;54.44;100979.84;5052219;28;20075;-21
2022/06/16 07:14:19;;;;;;;4.90;4.50;;;;;;;18.00;54.70;100986.84;5067498;28;20016;-21
2022/06/16 07:16:45;;;;;;;5.05;4.30;;;;;;;18.03;54.92;100989.41;5064552;28;20028;-21
2022/06/16 07:19:10;;;;;;;4.70;4.22;;;;;;;18.07;54.85;101001.69;5062160;28;20032;-21
2022/06/16 07:21:35;;;;;;;5.47;4.40;;;;;;;18.14;54.56;101006.88;5066444;28;20143;-21
2022/06/16 07:24:01;;;;;;;4.47;4.07;;;;;;;18.18;54.40;101011.16;5067486;28;20032;-21
2022/06/16 07:26:26;;;;;;;5.20;4.07;;;;;;;18.21;54.69;100987.88;5068545;28;20050;-21
2022/06/16 07:28:52;;;;;;;5.22;4.82;;;;;;;18.25;54.45;101001.13;5069586;28;20103;-21
2022/06/16 07:31:18;;;;;;;4.63;4.32;;;;;;;18.29;54.58;101008.97;5065106;28;20123;-21
2022/06/16 07:33:43;;;;;;;6.85;4.93;;;;;;;18.34;54.48;101017.69;5032884;28;20488;-21
2022/06/16 07:36:10;;;;;;;4.93;4.53;;;;;;;18.39;54.10;101021.97;5065563;28;20040;-21
2022/06/16 07:38:36;;;;;;;5.55;4.13;;;;;;;18.44;54.56;101018.22;5070264;28;20453;-21
2022/06/16 07:43:45;;;;;;;5.55;4.70;;;;;;;18.55;54.47;101014.28;5060555;28;20038;-21
2022/06/16 07:46:10;;;;;;;5.30;4.03;;;;;;;18.59;54.44;101026.59;5062862;28;20032;-21
2022/06/16 07:48:36;;;;;;;5.35;4.88;;;;;;;18.64;54.86;101023.75;5062158;28;20107;-21
2022/06/16 07:51:01;;;;;;;4.50;4.10;;;;;;;18.71;54.47;101023.44;5059554;28;20031;-21
2022/06/16 07:53:27;;;;;;;5.55;4.32;;;;;;;18.82;54.41;101022.19;5063414;28;20089;-21
2022/06/16 07:55:52;;;;;;;5.55;4.25;;;;;;;18.89;53.98;101028.16;5070674;28;20058;-21
2022/06/16 07:58:18;;;;;;;5.03;4.53;;;;;;;18.93;53.93;101024.44;5068357;28;20028;-21
2022/06/16 08:00:43;;;;;;;4.70;4.30;;;;;;;18.97;53.78;101020.69;5050323;28;20032;-21
2022/06/16 08:03:09;;;;;;;4.65;4.22;;;;;;;19.03;53.58;101019.59;5063373;28;21922;-21
2022/06/16 08:05:34;;;;;;;5.10;4.38;;;;;;;19.06;53.53;101015.06;5069924;28;20032;-21
2022/06/16 08:07:59;;;;;;;5.35;4.60;;;;;;;19.08;53.48;101021.19;5068276;28;20040;-21
2022/06/16 08:10:26;;;;;;;4.82;4.40;;;;;;;19.14;53.62;101021.91;5048863;28;20021;-21
2022/06/16 08:12:52;;;;;;;4.95;4.28;;;;;;;19.17;53.49;101016.44;5067233;28;20035;-21
2022/06/16 08:15:17;;;;;;;6.72;4.57;;;;;;;19.20;53.60;101019.84;5067280;28;20028;-21
2022/06/16 08:17:45;;;;;;;4.32;3.88;;;;;;;19.25;53.66;101014.31;5069242;28;20028;-21
2022/06/16 08:20:11;;;;;;;5.78;4.72;;;;;;;19.30;53.51;101035.50;5067237;28;20051;-21
2022/06/16 08:22:37;;;;;;;4.68;4.38;;;;;;;19.32;53.51;101031.84;5067783;28;20032;-21
2022/06/16 08:25:04;;;;;;;5.07;4.55;;;;;;;19.35;53.54;101031.72;5065004;28;20064;-21
2022/06/16 08:27:33;;;;;;;4.80;4.20;;;;;;;19.38;53.46;101024.50;5068332;28;20103;-21
2022/06/16 08:30:00;;;;;;;4.65;4.25;;;;;;;19.41;53.70;101032.41;5067943;28;20016;-21
2022/06/16 08:32:25;;;;;;;5.60;5.10;;;;;;;19.45;53.38;101031.34;5040493;28;20111;-21
2022/06/16 08:34:51;;;;;;;4.78;4.30;;;;;;;19.46;53.42;101031.28;5050942;28;20066;-21
2022/06/16 08:37:17;;;;;;;4.88;4.40;;;;;;;19.52;53.43;101035.53;5070191;28;20040;-21
2022/06/16 08:39:43;;;;;;;4.90;4.50;;;;;;;19.53;53.33;101034.59;5068023;28;20029;-21
2022/06/16 08:42:13;;;;;;;4.95;4.55;;;;;;;19.57;53.25;101051.38;5066704;28;20032;-21
2022/06/16 08:44:41;;;;;;;5.03;4.53;;;;;;;19.62;53.09;101049.38;5048493;28;20614;-21
2022/06/16 08:47:15;;;;;;;4.50;4.10;;;;;;;19.64;53.55;101052.84;5047375;28;20067;-21
2022/06/16 08:50:06;;;;;;;5.25;4.55;;;;;;;19.69;53.56;101053.56;5068258;28;20035;-21
2022/06/16 08:52:35;;;;;;;;;;;;;;;19.72;53.55;101061.47;5068432;28;20500;-21
2022/06/16 08:55:22;;;;;;;5.00;4.20;;;;;;;19.77;53.37;101063.91;5069329;28;20271;-21
2022/06/16 08:58:08;;;;;;;5.18;4.70;;;;;;;19.87;53.17;101067.97;5062940;28;20039;-21
2022/06/16 09:00:39;;;;;;;5.88;5.13;;;;;;;19.88;53.05;101058.13;5038585;28;20021;-21
2022/06/16 09:03:29;;;;;;;5.22;4.82;;;;;;;19.96;53.14;101066.69;5067830;28;20119;-21
2022/06/16 09:06:00;;;;;;;5.10;4.50;;;;;;;20.05;52.91;101069.94;5065386;28;20422;-21
2022/06/16 09:08:25;;;;;;;5.30;4.38;;;;;;;20.07;52.99;101082.31;5045332;28;20032;-21
2022/06/16 09:10:59;;;;;;;7.50;5.07;;;;;;;20.17;52.86;101084.63;5061538;28;20028;-21
2022/06/16 09:13:50;;;;;;;5.97;5.10;;;;;;;20.27;52.50;101080.59;5040599;28;20064;-21
2022/06/16 09:16:30;;;;;;;6.50;5.40;;;;;;;20.32;52.46;101080.41;5066689;28;20436;-21
2022/06/16 09:19:11;;;;;;;5.43;4.93;;;;;;;20.43;52.37;101083.47;5063136;28;20024;-21
2022/06/16 09:21:38;;;;;;;;;;;;;;;20.58;52.29;101087.28;5068871;28;20423;-21
2022/06/16 09:24:23;;;;;;;5.70;5.10;;;;;;;20.73;52.11;101095.56;5067333;28;19970;-21
2022/06/16 09:26:55;;;;;;;5.22;4.82;;;;;;;20.79;52.06;101099.78;5048661;28;20032;-22
2022/06/16 09:29:31;;;;;;;4.82;4.38;;;;;;;20.95;51.98;101094.63;5067545;28;20104;-22
2022/06/16 09:32:01;;;;;;;6.32;5.10;;;;;;;21.17;51.68;101096.31;5058559;28;20030;-22
2022/06/16 09:34:44;;;;;;;6.47;4.43;;;;;;;21.31;51.21;101099.22;5070511;28;20020;-22
2022/06/16 09:37:16;;;;;;;4.60;4.30;;;;;;;21.40;50.97;101089.81;5071549;28;20036;-22
2022/06/16 09:39:47;;;;;;;5.40;4.90;;;;;;;21.53;51.02;101085.63;5069390;28;20172;-22
2022/06/16 09:42:33;;;;;;;8.05;5.00;;;;;;;21.70;50.89;101083.06;5056743;28;20035;-22
2022/06/16 09:45:01;;;;;;;5.07;4.63;;;;;;;21.79;50.95;101085.28;5050618;28;20039;-22
2022/06/16 09:47:32;;;;;;;5.10;4.68;;;;;;;21.87;50.63;101085.78;5067360;28;20025;-22
2022/06/16 09:50:06;;;;;;;5.35;4.57;;;;;;;22.02;50.06;101083.25;5061025;28;20028;-22
2022/06/16 09:52:35;;;;;;;8.80;4.57;;;;;;;22.17;50.13;101085.16;5052767;28;20131;-22
2022/06/16 09:55:05;;;;;;;6.10;4.53;;;;;;;22.35;50.33;101085.16;5056372;28;20040;-22
2022/06/16 09:57:39;;;;;;;5.93;4.68;;;;;;;22.49;49.56;101095.19;5053732;28;20111;-21
2022/06/16 10:00:17;;;;;;;5.53;4.03;;;;;;;22.52;49.29;101094.13;5056116;28;20020;-21
2022/06/16 10:02:59;;;;;;;4.13;3.83;;;;;;;22.71;49.41;101101.25;5068189;28;20480;-21
2022/06/16 10:05:40;;;;;;;4.88;4.47;;;;;;;22.76;48.99;101108.13;5068000;28;20345;-21
2022/06/16 10:08:31;;;;;;;5.82;4.55;;;;;;;22.83;49.08;101097.88;5067833;28;20036;-21
2022/06/16 10:11:04;;;;;;;5.28;4.53;;;;;;;22.93;48.64;101093.75;5072148;28;20033;-21
2022/06/16 10:13:31;;;;;;;4.30;4.00;;;;;;;23.04;48.79;101100.38;5054827;28;20029;-22
2022/06/16 10:16:04;;;;;;;5.03;4.55;;;;;;;23.02;48.57;101102.25;5056119;28;20123;-22
2022/06/16 10:18:29;;;;;;;4.63;3.78;;;;;;;23.07;48.68;101100.19;5051007;28;20112;-22
2022/06/16 10:20:54;;;;;;;5.05;4.57;;;;;;;23.14;48.27;101106.13;5053512;28;20111;-22
2022/06/16 10:23:26;;;;;;;4.18;3.78;;;;;;;23.21;48.72;101102.13;5055536;28;20056;-22
2022/06/16 10:25:58;;;;;;;4.53;4.10;;;;;;;23.29;48.57;101107.06;5054260;28;20502;-22
2022/06/16 10:28:32;;;;;;;4.50;4.00;;;;;;;23.34;48.28;101104.97;5070418;28;20522;-22
2022/06/16 10:31:00;;;;;;;5.60;4.53;;;;;;;23.43;48.35;101115.25;5067882;28;20028;-22
2022/06/16 10:33:33;;;;;;;5.22;4.65;;;;;;;23.53;48.09;101109.34;5058136;28;20024;-22
2022/06/16 10:36:20;;;;;;;5.47;4.15;;;;;;;23.60;47.92;101108.03;5071008;28;20028;-22
2022/06/16 10:39:16;;;;;;;5.82;4.53;;;;;;;23.75;47.74;101111.69;5069200;28;20119;-21
2022/06/16 10:41:50;;;;;;;4.93;4.18;;;;;;;23.84;47.36;101110.25;5067695;28;20103;-21
2022/06/16 10:44:17;;;;;;;4.80;3.97;;;;;;;23.87;46.57;101110.06;5066163;28;20102;-21
2022/06/16 10:47:04;;;;;;;7.35;4.38;;;;;;;24.04;47.00;101110.94;5048105;28;20028;-21
2022/06/16 10:49:33;;;;;;;4.47;4.13;;;;;;;24.19;46.86;101103.78;5066953;28;20528;-22
2022/06/16 10:52:04;;;;;;;4.40;4.03;;;;;;;24.29;46.69;101113.03;5058371;28;20016;-22
2022/06/16 10:54:34;;;;;;;4.25;3.92;;;;;;;24.35;46.24;101106.41;5068727;28;20471;-22
2022/06/16 10:57:18;;;;;;;4.30;3.90;;;;;;;24.48;46.19;101120.88;5053869;28;20487;-22
2022/06/16 11:00:17;;;;;;;5.10;4.50;;;;;;;24.55;45.97;101121.38;5067947;28;20075;-22
2022/06/16 11:02:58;;;;;;;8.57;4.97;;;;;;;24.67;45.60;101110.78;5067244;28;20565;-22
2022/06/16 11:05:24;;;;;;;5.25;4.05;;;;;;;24.76;45.98;101112.03;5037561;28;20036;-22
2022/06/16 11:07:50;;;;;;;4.18;3.78;;;;;;;24.86;45.96;101113.22;5069149;28;20016;-22
2022/06/16 11:10:28;;;;;;;4.03;3.70;;;;;;;24.93;45.41;101109.19;5065049;28;20511;-22
2022/06/16 11:12:53;;;;;;;5.22;4.20;;;;;;;25.04;45.17;101104.94;5064981;28;20185;-22
2022/06/16 11:15:28;;;;;;;8.75;4.50;;;;;;;25.05;44.67;101095.88;5072995;28;20162;-22
2022/06/16 11:17:56;;;;;;;4.15;3.75;;;;;;;25.15;44.89;101091.63;5070109;28;20060;-22
2022/06/16 11:20:37;;;;;;;5.32;3.92;;;;;;;25.25;44.41;101097.28;5067652;28;20020;-22
2022/06/16 11:23:17;;;;;;;;;;;;;;;25.37;44.35;101090.19;5069287;28;20478;-21
2022/06/16 11:25:43;;;;;;;4.32;3.92;;;;;;;25.44;44.00;101090.69;5066228;28;20006;-21
2022/06/16 11:28:12;;;;;;;5.93;3.72;;;;;;;25.54;44.02;101090.94;5068981;28;20456;-21
2022/06/16 11:30:49;;;;;;;5.53;3.70;;;;;;;25.61;43.84;101086.91;5067364;28;20474;-21
2022/06/16 11:36:34;;;;;;;4.40;3.60;;;;;;;25.79;43.15;101089.31;5067235;28;20031;-21
2022/06/16 11:39:18;;;;;;;4.15;3.75;;;;;;;25.78;43.23;101091.19;5069796;28;20199;-21
2022/06/16 11:41:47;;;;;;;4.78;3.78;;;;;;;25.89;42.03;101090.44;5070267;28;20400;-21
2022/06/16 11:44:34;;;;;;;3.88;3.58;;;;;;;25.92;42.56;101092.06;5055429;28;20020;-21
2022/06/16 11:47:07;;;;;;;5.78;4.28;;;;;;;26.03;42.22;101085.91;5067600;28;20025;-21
2022/06/16 11:49:47;;;;;;;6.13;3.88;;;;;;;26.15;42.79;101095.91;5067153;28;20103;-21
2022/06/16 11:52:33;;;;;;;5.05;3.75;;;;;;;26.30;42.54;101094.00;5069109;28;20047;-21
2022/06/16 11:55:33;;;;;;;5.10;4.10;;;;;;;26.31;42.08;101106.53;5047199;28;20070;-21
2022/06/16 11:58:14;;;;;;;4.83;3.90;;;;;;;26.42;42.34;101103.09;5064939;28;20063;-21
2022/06/16 12:00:55;;;;;;;8.05;3.95;;;;;;;26.49;42.17;101099.00;5035774;28;20408;-21
2022/06/16 12:03:29;;;;;;;4.45;3.67;;;;;;;26.58;41.95;101108.31;5068649;28;20114;-21
2022/06/16 12:06:20;;;;;;;4.63;3.92;;;;;;;26.67;41.75;101101.34;5052948;28;20043;-22